Hollansburg, Ohio
Current Conditions -  °F | °C
As of 5:35 PM on Friday 24 Oct 2014 (Local Time) from KVES Reporting Station
Scattered Clouds Scattered Clouds  
Wind Chill: 63°   Ceiling: Unl
Heat Index: 63°   Visibility: 10mi
Dew Point: 43°   Wind: 3mph
Humidity: 48%   Direction: 240°WSW
Pressure: 30.01"   Gusts: NA
Location:  40°N, 84.79°W
Report Text: KVES 242135Z AUTO 24003KT 10SM SCT040 17/06 A3001 RMK AO2
Loading
Personal Weather Stations






























Interactive Weather Map
Tropical Storm Tracking
New forecast layout! Learn more

10-Day Weather Forecast

Advertisements
Track Severe Weather on mobile